Time;durP1;ratioP1;P1;durP2;ratioP2;P2;SDS_P1;SDS_P2;PMS_P1;PMS_P2;Temp;Humidity;BMP_temperature;BMP_pressure;BME280_temperature;BME280_humidity;BME280_pressure;Samples;Min_cycle;Max_cycle;Signal;HPM_P1;HPM_P2
2023/02/27 00:01:43;;;;;;;;;;;2.50;68.30;;;;;;5092673;28;19973;-34
2023/02/27 00:04:08;;;;;;;;;;;2.40;68.30;;;;;;5092826;28;19908;-33
2023/02/27 00:06:34;;;;;;;;;;;2.40;68.30;;;;;;5092823;28;19908;-34
2023/02/27 00:08:59;;;;;;;;;;;2.40;68.40;;;;;;5092804;28;19912;-34
2023/02/27 00:11:25;;;;;;;;;;;2.40;68.50;;;;;;5092850;28;19916;-34
2023/02/27 00:13:50;;;;;;;;;;;2.30;68.50;;;;;;5092772;28;19947;-33
2023/02/27 00:16:16;;;;;;;;;;;2.30;68.50;;;;;;5092693;28;20381;-35
2023/02/27 00:18:41;;;;;;;;;;;2.30;68.60;;;;;;5092363;28;19923;-32
2023/02/27 00:21:07;;;;;;;;;;;2.30;68.70;;;;;;5092298;28;19912;-35
2023/02/27 00:23:32;;;;;;;;;;;2.30;68.70;;;;;;5092282;28;19908;-32
2023/02/27 00:25:59;;;;;;;;;;;2.30;68.70;;;;;;5092424;28;19915;-40
2023/02/27 00:28:25;;;;;;;;;;;2.30;68.70;;;;;;5092453;28;20359;-36
2023/02/27 00:30:51;;;;;;;;;;;2.30;68.70;;;;;;5092571;28;19915;-34
2023/02/27 00:33:17;;;;;;;;;;;2.30;68.70;;;;;;5092287;28;19909;-36
2023/02/27 00:35:42;;;;;;;;;;;2.30;68.80;;;;;;5092189;28;20006;-34
2023/02/27 00:38:08;;;;;;;;;;;2.20;68.70;;;;;;5092293;28;19908;-35
2023/02/27 00:40:36;;;;;;;;;;;2.20;68.80;;;;;;5092087;28;19912;-35
2023/02/27 00:43:03;;;;;;;;;;;2.20;68.80;;;;;;5092183;28;19915;-34
2023/02/27 00:45:28;;;;;;;;;;;2.30;68.90;;;;;;5092188;28;20184;-35
2023/02/27 00:47:54;;;;;;;;;;;2.30;68.90;;;;;;5091864;28;20352;-35
2023/02/27 00:50:19;;;;;;;;;;;2.30;68.90;;;;;;5091919;28;19908;-36
2023/02/27 00:52:44;;;;;;;;;;;2.30;68.90;;;;;;5091911;28;19908;-35
2023/02/27 00:55:10;;;;;;;;;;;2.30;68.90;;;;;;5091848;28;19921;-34
2023/02/27 00:57:37;;;;;;;;;;;2.30;69.00;;;;;;5091069;28;19919;-35
2023/02/27 01:00:05;;;;;;;;;;;2.30;69.00;;;;;;5092049;28;20291;-37
2023/02/27 01:02:30;;;;;;;;;;;2.30;69.00;;;;;;5091775;28;20024;-34
2023/02/27 01:04:56;;;;;;;;;;;2.30;69.00;;;;;;5092192;28;19966;-37
2023/02/27 01:07:21;;;;;;;;;;;2.30;69.00;;;;;;5091938;28;19939;-34
2023/02/27 01:09:47;;;;;;;;;;;2.30;69.00;;;;;;5091592;28;19908;-36
2023/02/27 01:12:12;;;;;;;;;;;2.30;69.00;;;;;;5091699;28;19916;-35
2023/02/27 01:14:38;;;;;;;;;;;2.30;69.00;;;;;;5091470;28;19973;-34
2023/02/27 01:17:03;;;;;;;;;;;2.40;69.00;;;;;;5091496;28;19908;-34
2023/02/27 01:19:29;;;;;;;;;;;2.30;68.90;;;;;;5091541;28;19959;-33
2023/02/27 01:21:54;;;;;;;;;;;2.30;68.90;;;;;;5091486;28;19959;-34
2023/02/27 01:24:20;;;;;;;;;;;2.30;69.00;;;;;;5091356;28;20006;-34
2023/02/27 01:26:46;;;;;;;;;;;2.40;69.00;;;;;;5091215;28;19931;-36
2023/02/27 01:29:12;;;;;;;;;;;2.40;69.00;;;;;;5089920;28;20362;-32
2023/02/27 01:31:37;;;;;;;;;;;2.30;68.90;;;;;;5090027;28;19908;-34
2023/02/27 01:34:03;;;;;;;;;;;2.30;68.80;;;;;;5091115;28;19908;-32
2023/02/27 01:36:28;;;;;;;;;;;2.30;68.90;;;;;;5091304;28;19908;-35
2023/02/27 01:38:54;;;;;;;;;;;2.30;68.90;;;;;;5091412;28;19947;-38
2023/02/27 01:41:20;;;;;;;;;;;2.30;68.90;;;;;;5090969;28;19912;-35
2023/02/27 01:43:53;;;;;;;;;;;2.30;69.00;;;;;;5091333;28;19908;-38
2023/02/27 01:46:18;;;;;;;;;;;2.30;69.00;;;;;;5090967;28;19908;-34
2023/02/27 01:48:44;;;;;;;;;;;2.30;69.00;;;;;;5090941;28;20280;-34
2023/02/27 01:51:12;;;;;;;;;;;2.20;68.90;;;;;;5090977;28;19919;-35
2023/02/27 01:53:39;;;;;;;;;;;2.20;69.00;;;;;;5091272;28;19952;-33
2023/02/27 01:56:10;;;;;;;;;;;2.20;69.10;;;;;;5090925;28;19908;-35
2023/02/27 01:58:35;;;;;;;;;;;2.20;69.10;;;;;;5091007;28;19915;-35
2023/02/27 02:01:01;;;;;;;;;;;2.10;69.10;;;;;;5090838;28;19912;-34
2023/02/27 02:03:32;;;;;;;;;;;2.10;69.20;;;;;;5091251;28;20396;-35
2023/02/27 02:05:59;;;;;;;;;;;2.10;69.30;;;;;;5090789;28;20006;-34
2023/02/27 02:08:25;;;;;;;;;;;2.10;69.30;;;;;;5090372;28;20353;-35
2023/02/27 02:10:52;;;;;;;;;;;2.10;69.40;;;;;;5094834;28;20037;-35
2023/02/27 02:13:19;;;;;;;;;;;2.10;69.40;;;;;;5094755;28;19908;-37
2023/02/27 02:15:47;;;;;;;;;;;2.10;69.40;;;;;;5094858;28;19908;-35
2023/02/27 02:18:18;;;;;;;;;;;2.10;69.50;;;;;;5094888;28;19987;-35
2023/02/27 02:21:02;;;;;;;;;;;2.10;69.50;;;;;;5094592;28;19928;-34
2023/02/27 02:23:39;;;;;;;;;;;2.00;69.60;;;;;;5094940;28;20378;-39
2023/02/27 02:26:23;;;;;;;;;;;2.00;69.70;;;;;;5094557;28;19972;-35
2023/02/27 02:29:08;;;;;;;;;;;2.00;69.80;;;;;;5094655;28;19953;-35
2023/02/27 02:31:33;;;;;;;;;;;2.00;69.90;;;;;;5094425;28;19908;-35
2023/02/27 02:34:17;;;;;;;;;;;1.90;70.00;;;;;;5094584;28;19908;-34
2023/02/27 02:37:13;;;;;;;;;;;1.90;70.00;;;;;;5094538;28;20009;-35
2023/02/27 02:39:38;;;;;;;;;;;1.90;70.10;;;;;;5094740;28;19999;-33
2023/02/27 02:42:13;;;;;;;;;;;1.90;70.20;;;;;;5094627;28;20005;-35
2023/02/27 02:44:45;;;;;;;;;;;1.80;70.30;;;;;;5094544;28;19962;-36
2023/02/27 02:47:29;;;;;;;;;;;1.80;70.40;;;;;;5094419;28;19908;-35
2023/02/27 02:49:54;;;;;;;;;;;1.80;70.50;;;;;;5094286;28;19908;-45
2023/02/27 02:52:30;;;;;;;;;;;1.80;70.60;;;;;;5094219;28;20014;-33
2023/02/27 02:54:58;;;;;;;;;;;1.80;70.80;;;;;;5094108;28;19988;-40
2023/02/27 02:57:38;;;;;;;;;;;1.70;70.80;;;;;;5094002;28;20390;-34
2023/02/27 03:00:07;;;;;;;;;;;1.70;70.90;;;;;;5093978;28;19912;-34
2023/02/27 03:02:36;;;;;;;;;;;1.70;71.00;;;;;;5094069;28;20067;-34
2023/02/27 03:05:07;;;;;;;;;;;1.70;71.20;;;;;;5094053;28;19908;-35
2023/02/27 03:07:41;;;;;;;;;;;1.70;71.20;;;;;;5094143;28;19908;-33
2023/02/27 03:10:07;;;;;;;;;;;1.60;71.30;;;;;;5093893;28;20044;-36
2023/02/27 03:12:34;;;;;;;;;;;1.60;71.50;;;;;;5093864;28;19985;-35
2023/02/27 03:14:59;;;;;;;;;;;1.60;71.50;;;;;;5092453;28;19934;-35
2023/02/27 03:17:48;;;;;;;;;;;1.60;71.60;;;;;;5093276;28;20023;-37
2023/02/27 03:20:16;;;;;;;;;;;1.50;71.60;;;;;;5099852;28;19920;-35
2023/02/27 03:22:44;;;;;;;;;;;1.50;71.80;;;;;;5092858;28;19915;-35
2023/02/27 03:25:11;;;;;;;;;;;1.50;71.80;;;;;;5091829;28;19908;-35
2023/02/27 03:27:38;;;;;;;;;;;1.50;72.00;;;;;;5093313;28;20228;-35
2023/02/27 03:30:07;;;;;;;;;;;1.50;72.00;;;;;;5093180;28;19909;-35
2023/02/27 03:32:32;;;;;;;;;;;1.50;72.10;;;;;;5093141;28;19965;-35
2023/02/27 03:34:58;;;;;;;;;;;1.50;72.20;;;;;;5093142;28;19908;-35
2023/02/27 03:37:24;;;;;;;;;;;1.40;72.30;;;;;;5093131;28;20003;-35
2023/02/27 03:40:08;;;;;;;;;;;1.40;72.40;;;;;;5093040;28;19912;-34
2023/02/27 03:42:33;;;;;;;;;;;1.30;72.60;;;;;;5092772;28;19912;-32
2023/02/27 03:45:02;;;;;;;;;;;1.30;72.80;;;;;;5092896;28;20320;-35
2023/02/27 03:47:27;;;;;;;;;;;1.30;73.00;;;;;;5092752;28;19908;-36
2023/02/27 03:49:54;;;;;;;;;;;1.20;73.10;;;;;;5092734;28;20012;-34
2023/02/27 03:52:21;;;;;;;;;;;1.20;73.20;;;;;;5092745;28;19919;-35
2023/02/27 03:54:51;;;;;;;;;;;1.20;74.10;;;;;;5092872;28;19928;-34
2023/02/27 03:57:17;;;;;;;;;;;1.20;73.60;;;;;;5092562;28;19915;-35
2023/02/27 03:59:43;;;;;;;;;;;1.10;73.60;;;;;;5092751;28;19908;-35
2023/02/27 04:02:08;;;;;;;;;;;1.10;73.70;;;;;;5092591;28;20355;-35
2023/02/27 04:04:34;;;;;;;;;;;1.10;73.70;;;;;;5092498;28;20361;-34
2023/02/27 04:07:21;;;;;;;;;;;1.10;73.90;;;;;;5092752;28;19915;-35
2023/02/27 04:09:52;;;;;;;;;;;1.10;74.00;;;;;;5092591;28;19955;-35
2023/02/27 04:12:36;;;;;;;;;;;1.10;74.20;;;;;;5092371;28;19908;-35
2023/02/27 04:15:13;;;;;;;;;;;1.10;74.20;;;;;;5092337;28;19908;-35
2023/02/27 04:17:53;;;;;;;;;;;1.10;74.30;;;;;;5090948;28;20363;-35
2023/02/27 04:20:34;;;;;;;;;;;1.10;74.30;;;;;;5092118;28;19928;-37
2023/02/27 04:23:12;;;;;;;;;;;1.10;74.40;;;;;;5092225;28;19909;-45
2023/02/27 04:25:40;;;;;;;;;;;1.10;74.50;;;;;;5092071;28;19924;-35
2023/02/27 04:28:16;;;;;;;;;;;1.10;74.60;;;;;;5092431;28;19908;-40
2023/02/27 04:30:48;;;;;;;;;;;1.10;74.70;;;;;;5092282;28;20418;-35
2023/02/27 04:33:26;;;;;;;;;;;1.10;74.70;;;;;;5092066;28;19935;-35
2023/02/27 04:35:53;;;;;;;;;;;1.10;75.00;;;;;;5092277;28;19928;-35
2023/02/27 04:38:29;;;;;;;;;;;1.10;74.80;;;;;;5092031;28;19908;-35
2023/02/27 04:40:54;;;;;;;;;;;1.10;74.80;;;;;;5091688;28;20008;-35
2023/02/27 04:43:21;;;;;;;;;;;1.10;74.80;;;;;;5091786;28;19989;-35
2023/02/27 04:45:47;;;;;;;;;;;1.10;74.80;;;;;;5091589;28;19915;-35
2023/02/27 04:48:19;;;;;;;;;;;1.10;74.90;;;;;;5091574;28;20161;-35
2023/02/27 04:50:58;;;;;;;;;;;1.10;74.90;;;;;;5091531;28;19956;-33
2023/02/27 04:53:23;;;;;;;;;;;1.10;75.00;;;;;;5091464;28;19915;-35
2023/02/27 04:55:54;;;;;;;;;;;1.10;74.90;;;;;;5091509;28;19908;-35
2023/02/27 04:58:26;;;;;;;;;;;1.10;74.90;;;;;;5091992;28;20223;-35
2023/02/27 05:01:08;;;;;;;;;;;1.10;75.00;;;;;;5091708;28;20283;-34
2023/02/27 05:03:37;;;;;;;;;;;1.10;75.10;;;;;;5091462;28;19908;-33
2023/02/27 05:06:03;;;;;;;;;;;1.10;75.00;;;;;;5091453;28;19914;-34
2023/02/27 05:08:40;;;;;;;;;;;1.10;75.10;;;;;;5091681;28;20339;-35
2023/02/27 05:11:21;;;;;;;;;;;1.10;75.10;;;;;;5091430;28;20351;-34
2023/02/27 05:14:13;;;;;;;;;;;1.10;75.00;;;;;;5091122;28;19957;-35
2023/02/27 05:16:54;;;;;;;;;;;1.10;75.00;;;;;;5089145;28;20264;-36
2023/02/27 05:19:20;;;;;;;;;;;1.10;75.10;;;;;;5091537;28;20464;-36
2023/02/27 05:21:55;;;;;;;;;;;1.10;75.10;;;;;;5091165;28;19942;-35
2023/02/27 05:24:24;;;;;;;;;;;1.10;75.10;;;;;;5091231;28;19915;-35
2023/02/27 05:26:49;;;;;;;;;;;1.10;75.10;;;;;;5091287;28;20264;-35
2023/02/27 05:29:26;;;;;;;;;;;1.10;75.10;;;;;;5091341;28;19919;-35
2023/02/27 05:31:54;;;;;;;;;;;1.10;75.20;;;;;;5091327;28;20002;-34
2023/02/27 05:34:31;;;;;;;;;;;1.10;75.10;;;;;;5091196;28;20289;-36
2023/02/27 05:36:58;;;;;;;;;;;1.10;75.20;;;;;;5091546;28;20003;-36
2023/02/27 05:39:26;;;;;;;;;;;1.10;75.10;;;;;;5091035;28;20002;-34
2023/02/27 05:42:03;;;;;;;;;;;1.10;75.20;;;;;;5091192;28;19912;-35
2023/02/27 05:44:34;;;;;;;;;;;1.10;75.20;;;;;;5090701;28;20334;-36
2023/02/27 05:47:01;;;;;;;;;;;1.10;75.30;;;;;;5090898;28;19961;-41
2023/02/27 05:49:29;;;;;;;;;;;1.10;75.30;;;;;;5090928;28;20006;-35
2023/02/27 05:51:56;;;;;;;;;;;1.10;75.40;;;;;;5090998;28;20324;-35
2023/02/27 05:54:28;;;;;;;;;;;1.10;75.40;;;;;;5090855;28;19912;-33
2023/02/27 05:56:56;;;;;;;;;;;1.10;75.30;;;;;;5090966;28;19909;-36
2023/02/27 05:59:26;;;;;;;;;;;1.10;75.30;;;;;;5090901;28;20390;-35
2023/02/27 06:01:51;;;;;;;;;;;1.10;76.00;;;;;;5090988;28;19916;-36
2023/02/27 06:04:17;;;;;;;;;;;1.10;75.40;;;;;;5090865;28;20093;-37
2023/02/27 06:06:43;;;;;;;;;;;1.10;75.40;;;;;;5090939;28;20253;-38
2023/02/27 06:09:09;;;;;;;;;;;1.10;75.40;;;;;;5090724;28;19978;-37
2023/02/27 06:11:34;;;;;;;;;;;1.10;75.40;;;;;;5090789;28;19966;-36
2023/02/27 06:14:00;;;;;;;;;;;1.10;75.40;;;;;;5090730;28;19908;-36
2023/02/27 06:16:25;;;;;;;;;;;1.10;75.40;;;;;;5090731;28;20018;-35
2023/02/27 06:18:51;;;;;;;;;;;1.10;75.40;;;;;;5090882;28;19920;-35
2023/02/27 06:21:16;;;;;;;;;;;1.20;75.50;;;;;;5090343;28;19974;-35
2023/02/27 06:23:42;;;;;;;;;;;1.20;75.50;;;;;;5090790;28;20016;-32
2023/02/27 06:26:12;;;;;;;;;;;1.20;75.50;;;;;;5090693;28;19908;-35
2023/02/27 06:28:38;;;;;;;;;;;1.20;75.50;;;;;;5090610;28;19912;-36
2023/02/27 06:31:03;;;;;;;;;;;1.20;75.50;;;;;;5090483;28;19909;-34
2023/02/27 06:33:29;;;;;;;;;;;1.20;75.50;;;;;;5089025;28;19943;-35
2023/02/27 06:35:54;;;;;;;;;;;1.20;75.50;;;;;;5090801;28;19908;-34
2023/02/27 06:38:20;;;;;;;;;;;1.20;75.40;;;;;;5090655;28;20359;-35
2023/02/27 06:40:45;;;;;;;;;;;1.20;75.30;;;;;;5090790;28;20001;-32
2023/02/27 06:43:11;;;;;;;;;;;1.20;75.30;;;;;;5090508;28;19950;-35
2023/02/27 06:45:36;;;;;;;;;;;1.30;75.40;;;;;;5090390;28;20280;-34
2023/02/27 06:48:02;;;;;;;;;;;1.30;75.50;;;;;;5090565;28;19915;-35
2023/02/27 06:50:27;;;;;;;;;;;1.30;75.40;;;;;;5090753;28;19908;-35
2023/02/27 06:52:53;;;;;;;;;;;1.30;75.40;;;;;;5090505;28;19908;-34
2023/02/27 06:55:21;;;;;;;;;;;1.30;75.40;;;;;;5088963;28;20328;-35
2023/02/27 06:57:47;;;;;;;;;;;1.40;75.50;;;;;;5093924;28;20343;-33
2023/02/27 07:00:13;;;;;;;;;;;1.40;75.50;;;;;;5093981;28;19908;-35
2023/02/27 07:02:39;;;;;;;;;;;1.40;75.50;;;;;;5094379;28;19950;-35
2023/02/27 07:05:06;;;;;;;;;;;1.50;75.50;;;;;;5094418;28;20007;-35
2023/02/27 07:07:31;;;;;;;;;;;1.50;75.40;;;;;;5092561;28;20013;-32
2023/02/27 07:09:57;;;;;;;;;;;1.50;75.40;;;;;;5094097;28;19944;-34
2023/02/27 07:12:22;;;;;;;;;;;1.60;75.40;;;;;;5093805;28;19916;-34
2023/02/27 07:14:48;;;;;;;;;;;1.60;75.30;;;;;;5093797;28;19961;-35
2023/02/27 07:17:13;;;;;;;;;;;1.70;75.30;;;;;;5093764;28;19908;-32
2023/02/27 07:19:39;;;;;;;;;;;1.70;75.90;;;;;;5093461;28;19920;-34
2023/02/27 07:22:04;;;;;;;;;;;1.70;75.20;;;;;;5093574;28;20388;-34
2023/02/27 07:24:30;;;;;;;;;;;1.70;75.10;;;;;;5093671;28;19960;-37
2023/02/27 07:26:55;;;;;;;;;;;1.80;75.20;;;;;;5093583;28;20378;-37
2023/02/27 07:29:21;;;;;;;;;;;1.80;75.10;;;;;;5092146;28;20017;-36
2023/02/27 07:31:46;;;;;;;;;;;1.80;75.00;;;;;;5093731;28;19916;-34
2023/02/27 07:34:13;;;;;;;;;;;1.90;75.00;;;;;;5093424;28;19908;-34
2023/02/27 07:36:39;;;;;;;;;;;1.90;74.90;;;;;;5093509;28;19951;-37
2023/02/27 07:39:05;;;;;;;;;;;1.90;74.90;;;;;;5093342;28;20032;-35
2023/02/27 07:41:30;;;;;;;;;;;2.00;74.90;;;;;;5093247;28;20008;-36
2023/02/27 07:43:56;;;;;;;;;;;2.00;74.80;;;;;;5093530;28;19912;-34
2023/02/27 07:46:23;;;;;;;;;;;2.00;74.80;;;;;;5093271;28;19908;-31
2023/02/27 07:48:49;;;;;;;;;;;2.10;74.80;;;;;;5093475;28;19969;-35
2023/02/27 07:51:14;;;;;;;;;;;2.10;74.80;;;;;;5093026;28;19908;-36
2023/02/27 07:53:39;;;;;;;;;;;2.10;74.70;;;;;;5093135;28;19914;-35
2023/02/27 07:56:05;;;;;;;;;;;2.20;74.60;;;;;;5093369;28;19908;-34
2023/02/27 07:58:30;;;;;;;;;;;2.20;74.50;;;;;;5091727;28;19915;-37
2023/02/27 08:00:56;;;;;;;;;;;2.30;74.50;;;;;;5092674;28;20370;-34
2023/02/27 08:03:21;;;;;;;;;;;2.40;74.50;;;;;;5092854;28;19908;-37
2023/02/27 08:05:47;;;;;;;;;;;2.40;74.40;;;;;;5093237;28;19915;-32
2023/02/27 08:08:12;;;;;;;;;;;2.50;74.30;;;;;;5092477;28;19919;-35
2023/02/27 08:10:38;;;;;;;;;;;2.60;74.20;;;;;;5092867;28;19999;-35
2023/02/27 08:13:03;;;;;;;;;;;2.60;74.10;;;;;;5092992;28;20284;-34
2023/02/27 08:15:31;;;;;;;;;;;2.70;74.10;;;;;;5092892;28;19908;-36
2023/02/27 08:17:57;;;;;;;;;;;2.80;74.00;;;;;;5092729;28;20503;-35
2023/02/27 08:20:23;;;;;;;;;;;2.90;73.90;;;;;;5092527;28;19959;-34
2023/02/27 08:22:48;;;;;;;;;;;3.00;73.70;;;;;;5092680;28;19912;-35
2023/02/27 08:25:14;;;;;;;;;;;3.00;73.60;;;;;;5092791;28;20010;-35
2023/02/27 08:27:40;;;;;;;;;;;3.10;73.40;;;;;;5092615;28;20284;-35
2023/02/27 08:30:06;;;;;;;;;;;3.10;73.20;;;;;;5092832;28;20006;-35
2023/02/27 08:32:32;;;;;;;;;;;3.20;73.10;;;;;;5092385;28;19957;-37
2023/02/27 08:34:58;;;;;;;;;;;3.20;72.70;;;;;;5092541;28;19908;-34
2023/02/27 08:37:24;;;;;;;;;;;3.30;72.70;;;;;;5092403;28;19915;-40
2023/02/27 08:39:49;;;;;;;;;;;3.40;72.70;;;;;;5092236;28;20011;-35
2023/02/27 08:42:15;;;;;;;;;;;3.40;72.60;;;;;;5091987;28;20016;-35
2023/02/27 08:44:40;;;;;;;;;;;3.40;72.10;;;;;;5092158;28;20000;-33
2023/02/27 08:47:06;;;;;;;;;;;3.50;72.20;;;;;;5092298;28;19916;-35
2023/02/27 08:49:31;;;;;;;;;;;3.50;72.00;;;;;;5092437;28;19915;-35
2023/02/27 08:51:57;;;;;;;;;;;3.60;71.80;;;;;;5091991;28;19997;-34
2023/02/27 08:54:22;;;;;;;;;;;3.70;71.90;;;;;;5092112;28;19915;-35
2023/02/27 08:56:48;;;;;;;;;;;3.70;71.80;;;;;;5092261;28;20007;-34
2023/02/27 08:59:14;;;;;;;;;;;3.80;71.70;;;;;;5090646;28;19914;-35
2023/02/27 09:01:39;;;;;;;;;;;3.90;71.60;;;;;;5091680;28;19912;-35
2023/02/27 09:04:05;;;;;;;;;;;4.00;71.60;;;;;;5092061;28;19915;-35
2023/02/27 09:06:32;;;;;;;;;;;4.10;71.50;;;;;;5091753;28;19908;-35
2023/02/27 09:08:58;;;;;;;;;;;4.10;71.40;;;;;;5091502;28;19908;-31
2023/02/27 09:11:24;;;;;;;;;;;4.20;71.40;;;;;;5091946;28;19993;-35
2023/02/27 09:13:50;;;;;;;;;;;4.30;71.40;;;;;;5091650;28;19947;-40
2023/02/27 09:16:16;;;;;;;;;;;4.30;71.20;;;;;;5091521;28;20071;-35
2023/02/27 09:18:42;;;;;;;;;;;4.40;71.10;;;;;;5090859;28;19924;-35
2023/02/27 09:21:07;;;;;;;;;;;4.50;70.80;;;;;;5091810;28;19912;-37
2023/02/27 09:23:33;;;;;;;;;;;4.50;70.60;;;;;;5091675;28;20283;-37
2023/02/27 09:25:59;;;;;;;;;;;4.50;70.20;;;;;;5091793;28;19908;-35
2023/02/27 09:28:24;;;;;;;;;;;4.50;70.20;;;;;;5091543;28;19914;-35
2023/02/27 09:30:49;;;;;;;;;;;4.60;70.30;;;;;;5091518;28;19977;-36
2023/02/27 09:33:15;;;;;;;;;;;4.70;69.70;;;;;;5091604;28;19916;-33
2023/02/27 09:35:40;;;;;;;;;;;4.70;70.00;;;;;;5091388;28;19908;-36
2023/02/27 09:38:06;;;;;;;;;;;4.80;70.00;;;;;;5091689;28;19916;-35
2023/02/27 09:40:36;;;;;;;;;;;4.80;70.00;;;;;;5091546;28;20427;-35
2023/02/27 09:43:07;;;;;;;;;;;4.90;69.90;;;;;;5091540;28;20363;-39
2023/02/27 09:45:38;;;;;;;;;;;5.00;69.80;;;;;;5091489;28;19908;-37
2023/02/27 09:48:32;;;;;;;;;;;5.00;69.70;;;;;;5091868;28;19908;-35
2023/02/27 09:50:58;;;;;;;;;;;5.10;68.80;;;;;;5082113;28;19908;-35
2023/02/27 09:53:25;;;;;;;;;;;5.10;68.00;;;;;;5091557;28;19931;-44
2023/02/27 09:55:52;;;;;;;;;;;5.20;68.80;;;;;;5091398;28;19915;-36
2023/02/27 09:58:20;;;;;;;;;;;5.20;68.80;;;;;;5091384;28;20417;-35
2023/02/27 10:00:47;;;;;;;;;;;5.30;68.90;;;;;;5091288;28;20325;-36
2023/02/27 10:03:31;;;;;;;;;;;5.30;68.40;;;;;;5091349;28;19908;-36
2023/02/27 10:06:16;;;;;;;;;;;5.40;68.00;;;;;;5091186;28;19916;-35
2023/02/27 10:08:47;;;;;;;;;;;5.50;65.60;;;;;;5090975;28;20003;-36
2023/02/27 10:11:16;;;;;;;;;;;5.40;65.50;;;;;;5091537;28;19908;-38
2023/02/27 10:13:54;;;;;;;;;;;5.50;66.90;;;;;;5091135;28;19916;-37
2023/02/27 10:16:21;;;;;;;;;;;5.50;66.30;;;;;;5091360;28;19908;-37
2023/02/27 10:18:57;;;;;;;;;;;5.50;64.10;;;;;;5091104;28;19916;-35
2023/02/27 10:21:46;;;;;;;;;;;5.50;63.80;;;;;;5090035;28;19912;-34
2023/02/27 10:24:11;;;;;;;;;;;5.50;65.70;;;;;;5085537;28;19961;-36
2023/02/27 10:26:39;;;;;;;;;;;5.60;64.70;;;;;;5091269;28;19915;-34
2023/02/27 10:29:26;;;;;;;;;;;5.70;62.70;;;;;;5091456;28;20323;-36
2023/02/27 10:31:59;;;;;;;;;;;5.70;64.40;;;;;;5095015;28;19908;-35
2023/02/27 10:34:24;;;;;;;;;;;5.80;64.60;;;;;;5095217;28;19919;-36
2023/02/27 10:36:50;;;;;;;;;;;5.80;64.90;;;;;;5094791;28;19912;-36
2023/02/27 10:39:17;;;;;;;;;;;5.90;64.90;;;;;;5094803;28;19912;-40
2023/02/27 10:41:44;;;;;;;;;;;6.00;62.40;;;;;;5094594;28;19916;-47
2023/02/27 10:44:13;;;;;;;;;;;6.10;63.30;;;;;;5094847;28;19908;-35
2023/02/27 10:46:38;;;;;;;;;;;6.10;64.20;;;;;;5094652;28;19908;-43
2023/02/27 10:49:17;;;;;;;;;;;6.20;64.90;;;;;;5094600;28;19915;-35
2023/02/27 10:51:43;;;;;;;;;;;6.30;63.90;;;;;;5094518;28;20278;-53
2023/02/27 10:54:19;;;;;;;;;;;6.40;62.10;;;;;;5094686;28;19908;-36
2023/02/27 10:56:46;;;;;;;;;;;6.40;63.70;;;;;;5094799;28;20391;-36
2023/02/27 10:59:20;;;;;;;;;;;6.40;62.20;;;;;;5094383;28;20287;-42
2023/02/27 11:01:50;;;;;;;;;;;6.50;63.70;;;;;;5094381;28;19912;-36
2023/02/27 11:04:27;;;;;;;;;;;6.50;64.70;;;;;;5094338;28;19951;-34
2023/02/27 11:06:53;;;;;;;;;;;6.50;60.60;;;;;;5094517;28;19915;-36
2023/02/27 11:09:24;;;;;;;;;;;6.40;59.80;;;;;;5094361;28;19950;-35
2023/02/27 11:11:49;;;;;;;;;;;6.40;61.60;;;;;;5094409;28;19999;-33
2023/02/27 11:14:18;;;;;;;;;;;6.30;62.00;;;;;;5094268;28;19944;-35
2023/02/27 11:16:57;;;;;;;;;;;6.40;62.50;;;;;;5093995;28;19908;-36
2023/02/27 11:19:24;;;;;;;;;;;6.40;62.00;;;;;;5093947;28;20284;-35
2023/02/27 11:22:13;;;;;;;;;;;6.50;62.10;;;;;;5094096;28;19920;-34
2023/02/27 11:24:38;;;;;;;;;;;6.50;61.30;;;;;;5088010;28;19908;-32
2023/02/27 11:27:17;;;;;;;;;;;6.50;62.10;;;;;;5093771;28;20472;-35
2023/02/27 11:30:02;;;;;;;;;;;6.60;62.50;;;;;;5094177;28;20279;-35
2023/02/27 11:32:36;;;;;;;;;;;6.70;62.30;;;;;;5093604;28;20237;-35
2023/02/27 11:35:03;;;;;;;;;;;6.80;58.20;;;;;;5094053;28;19915;-36
2023/02/27 11:37:35;;;;;;;;;;;6.70;58.50;;;;;;5092409;28;19908;-33
2023/02/27 11:40:00;;;;;;;;;;;6.70;60.40;;;;;;5092266;28;19908;-36
2023/02/27 11:42:29;;;;;;;;;;;6.70;59.20;;;;;;5092693;28;19916;-36
2023/02/27 11:45:03;;;;;;;;;;;6.80;60.30;;;;;;5094087;28;20355;-40
2023/02/27 11:47:39;;;;;;;;;;;6.80;61.60;;;;;;5093691;28;20255;-40
2023/02/27 11:50:12;;;;;;;;;;;6.90;61.80;;;;;;5093800;28;19908;-36
2023/02/27 11:52:44;;;;;;;;;;;6.80;62.20;;;;;;5093540;28;19909;-36
2023/02/27 11:55:14;;;;;;;;;;;6.80;62.30;;;;;;5093905;28;19908;-36
2023/02/27 11:57:42;;;;;;;;;;;6.90;61.90;;;;;;5093421;28;19908;-34
2023/02/27 12:00:19;;;;;;;;;;;6.90;63.20;;;;;;5093604;28;19908;-35
2023/02/27 12:02:50;;;;;;;;;;;6.80;64.90;;;;;;5093486;28;19918;-34
2023/02/27 12:05:22;;;;;;;;;;;6.80;64.50;;;;;;5093719;28;19908;-37
2023/02/27 12:07:54;;;;;;;;;;;6.70;63.30;;;;;;5092130;28;20003;-36
2023/02/27 12:10:21;;;;;;;;;;;6.70;62.20;;;;;;5093509;28;20283;-37
2023/02/27 12:12:49;;;;;;;;;;;6.70;63.10;;;;;;5093164;28;19912;-36
2023/02/27 12:15:35;;;;;;;;;;;6.70;62.80;;;;;;5093598;28;19999;-34
2023/02/27 12:18:01;;;;;;;;;;;6.80;61.00;;;;;;5093120;28;19908;-36
2023/02/27 12:20:28;;;;;;;;;;;6.90;58.00;;;;;;5092954;28;19927;-36
2023/02/27 12:22:54;;;;;;;;;;;7.10;55.80;;;;;;5093088;28;19958;-36
2023/02/27 12:25:38;;;;;;;;;;;7.10;56.30;;;;;;5092849;28;19908;-36
2023/02/27 12:28:16;;;;;;;;;;;7.20;57.50;;;;;;5091702;28;20248;-37
2023/02/27 12:30:46;;;;;;;;;;;7.30;57.70;;;;;;5092904;28;19915;-37
2023/02/27 12:33:34;;;;;;;;;;;7.30;56.80;;;;;;5092753;28;20325;-36
2023/02/27 12:36:01;;;;;;;;;;;7.40;58.90;;;;;;5086997;28;19908;-33
2023/02/27 12:38:26;;;;;;;;;;;7.60;58.90;;;;;;5091452;28;19934;-36
2023/02/27 12:41:00;;;;;;;;;;;7.70;55.90;;;;;;5091188;28;19912;-36
2023/02/27 12:43:31;;;;;;;;;;;7.80;58.50;;;;;;5093001;28;19934;-35
2023/02/27 12:46:15;;;;;;;;;;;7.80;60.10;;;;;;5092869;28;19912;-37
2023/02/27 12:48:41;;;;;;;;;;;7.90;61.00;;;;;;5090963;28;20317;-35
2023/02/27 12:51:06;;;;;;;;;;;7.90;61.30;;;;;;5092599;28;19927;-37
2023/02/27 12:53:41;;;;;;;;;;;7.90;60.10;;;;;;5092791;28;19908;-38
2023/02/27 12:56:17;;;;;;;;;;;8.00;59.40;;;;;;5092516;28;19919;-36
2023/02/27 12:58:52;;;;;;;;;;;8.00;59.80;;;;;;5092859;28;19908;-38
2023/02/27 13:01:29;;;;;;;;;;;8.10;58.90;;;;;;5092302;28;19961;-37
2023/02/27 13:03:57;;;;;;;;;;;8.00;60.20;;;;;;5092498;28;20228;-38
2023/02/27 13:06:33;;;;;;;;;;;8.00;59.40;;;;;;5092225;28;19991;-35
2023/02/27 13:09:05;;;;;;;;;;;7.90;57.10;;;;;;5092188;28;19908;-36
2023/02/27 13:11:42;;;;;;;;;;;7.90;58.50;;;;;;5092434;28;19908;-36
2023/02/27 13:14:07;;;;;;;;;;;7.80;58.30;;;;;;5092028;28;19908;-36
2023/02/27 13:16:38;;;;;;;;;;;7.80;58.00;;;;;;5092232;28;19915;-36
2023/02/27 13:19:22;;;;;;;;;;;7.90;55.90;;;;;;5091756;28;19927;-37
2023/02/27 13:21:54;;;;;;;;;;;7.90;58.20;;;;;;5091962;28;20276;-33
2023/02/27 13:24:28;;;;;;;;;;;8.10;61.30;;;;;;5090935;28;20054;-37
2023/02/27 13:26:57;;;;;;;;;;;8.30;62.50;;;;;;5091977;28;19913;-38
2023/02/27 13:29:33;;;;;;;;;;;8.40;63.20;;;;;;5091906;28;19912;-36
2023/02/27 13:32:07;;;;;;;;;;;8.60;62.00;;;;;;5091889;28;20102;-34
2023/02/27 13:34:53;;;;;;;;;;;8.60;61.80;;;;;;5091507;28;19913;-37
2023/02/27 13:37:18;;;;;;;;;;;8.70;60.10;;;;;;5091230;28;19958;-33
2023/02/27 13:39:44;;;;;;;;;;;8.70;57.90;;;;;;5091839;28;20367;-37
2023/02/27 13:42:29;;;;;;;;;;;8.70;56.80;;;;;;5091320;28;20015;-35
2023/02/27 13:44:56;;;;;;;;;;;8.50;56.90;;;;;;5091503;28;19958;-36
2023/02/27 13:47:45;;;;;;;;;;;8.50;57.50;;;;;;5091712;28;19912;-35
2023/02/27 13:50:16;;;;;;;;;;;8.50;58.30;;;;;;5091247;28;19916;-33
2023/02/27 13:52:43;;;;;;;;;;;8.60;57.40;;;;;;5091489;28;19912;-38
2023/02/27 13:55:29;;;;;;;;;;;8.60;57.40;;;;;;5091403;28;20445;-35
2023/02/27 13:57:59;;;;;;;;;;;8.70;56.90;;;;;;5091408;28;19918;-37
2023/02/27 14:00:26;;;;;;;;;;;8.70;57.50;;;;;;5091219;28;19951;-37
2023/02/27 14:02:57;;;;;;;;;;;8.60;57.20;;;;;;5091455;28;20007;-36
2023/02/27 14:05:33;;;;;;;;;;;8.50;56.80;;;;;;5092669;28;20010;-41
2023/02/27 14:07:59;;;;;;;;;;;8.40;57.10;;;;;;5095193;28;19991;-33
2023/02/27 14:10:26;;;;;;;;;;;8.20;57.10;;;;;;5095346;28;19963;-35
2023/02/27 14:12:52;;;;;;;;;;;8.00;58.30;;;;;;5095393;28;19912;-36
2023/02/27 14:15:20;;;;;;;;;;;7.90;58.00;;;;;;5095509;28;20014;-35
2023/02/27 14:17:47;;;;;;;;;;;7.70;58.30;;;;;;5095428;28;19912;-34
2023/02/27 14:20:32;;;;;;;;;;;7.80;59.10;;;;;;5094625;28;19920;-35
2023/02/27 14:23:17;;;;;;;;;;;7.90;58.40;;;;;;5087435;28;20260;-34
2023/02/27 14:25:48;;;;;;;;;;;8.00;58.60;;;;;;5094926;28;19912;-35
2023/02/27 14:28:32;;;;;;;;;;;8.00;56.90;;;;;;5094679;28;19912;-36
2023/02/27 14:31:00;;;;;;;;;;;7.90;56.30;;;;;;5094727;28;19912;-34
2023/02/27 14:33:28;;;;;;;;;;;7.80;56.60;;;;;;5094898;28;19912;-35
2023/02/27 14:36:03;;;;;;;;;;;7.60;57.00;;;;;;5094896;28;19912;-35
2023/02/27 14:38:29;;;;;;;;;;;7.60;58.00;;;;;;5094745;28;19912;-36
2023/02/27 14:40:59;;;;;;;;;;;7.60;57.90;;;;;;5094663;28;19916;-42
2023/02/27 14:43:31;;;;;;;;;;;7.60;58.00;;;;;;5094576;28;20010;-36
2023/02/27 14:46:04;;;;;;;;;;;7.80;57.40;;;;;;5094788;28;20351;-35